• Join FlightAware (Why Join?)
  • Login
  • US Flag 
05:03PM EST


 

Airport Tracker/Info


-or-


 

Live Flight TrackerFlight Track Log ✈ EJA641 ✈ 28-Apr-2013 ✈ KSGR - KSUS

Flight Track Log - Related Links

Times and Time Zones

All times are in EDT time to prevent confusion due to time zone crossing. See the EJA641 flight status page for this flight to view local times or setup timezone preferences in your user account.

Time Position Orientation Groundspeed Altitude Reporting Facility
EDT Latitude Longitude Course Direction KTS MPH feet Rate Location/Type
06:53PM 29.6100 -95.6575 175° South 144 166 800  Level Houston Center
06:54PM 29.5464 -95.6506 175° South 199 229 4,300 2,160 Climbing Houston Center
06:55PM 29.4833 -95.6419 173° South 228 262 5,300 2,280 Climbing Houston Center
06:56PM 29.4892 -95.5819 84° East 265 305 8,800 2,640 Climbing Houston Center
06:57PM 29.5522 -95.5242 39° Northeast 289 333 10,800 1,980 Climbing Houston Center
06:58PM 29.6294 -95.4658 33° Northeast 340 391 12,900 2,100 Climbing Houston Center
06:58PM 29.6606 -95.4494 25° Northeast 347 399 13,600 2,160 Climbing Houston Center
06:59PM 29.7456 -95.4153 19° North 356 410 15,500 1,320 Climbing Houston Center
07:00PM 29.8172 -95.3858 20° North 359 413 16,000 240 Climbing Houston Center
07:01PM 29.9158 -95.3464 19° North 370 426 16,000 480 Level Houston Center
07:02PM 30.0147 -95.3069 19° North 372 428 17,100 1,500 Climbing Houston Center
07:03PM 30.1125 -95.2675 19° North 372 428 19,100 2,160 Climbing Houston Center
07:04PM 30.2267 -95.2222 19° North 362 417 21,600 2,040 Climbing Houston Center
07:05PM 30.3242 -95.1828 19° North 371 427 23,400 1,620 Climbing Houston Center
07:06PM 30.4331 -95.1386 19° North 384 442 25,000 1,500 Climbing Houston Center
07:07PM 30.5394 -95.0953 19° North 402 463 26,600 1,500 Climbing Houston Center
07:08PM 30.6453 -95.0394 24° Northeast 420 483 28,200 1,440 Climbing Houston Center
07:09PM 30.7528 -94.9731 28° Northeast 439 505 29,600 1,260 Climbing Houston Center
07:10PM 30.8625 -94.9056 28° Northeast 445 512 30,900 1,200 Climbing Houston Center
07:11PM 30.9728 -94.8364 28° Northeast 450 518 32,100 1,320 Climbing Houston Center
07:12PM 31.0564 -94.7825 29° Northeast 451 519 33,100 1,200 Climbing Fort Worth Center
07:13PM 31.1617 -94.7236 26° Northeast 443 510 34,100 1,020 Climbing Fort Worth Center
07:14PM 31.2800 -94.6861 15° North 443 510 35,200 1,200 Climbing Fort Worth Center
07:15PM 31.4067 -94.6533 12° North 443 510 36,500 1,320 Climbing Fort Worth Center
07:16PM 31.4753 -94.6336 14° North 435 501 37,200 1,200 Climbing Houston Center
07:16PM 31.5228 -94.6206 13° North 443 510 37,700 2,520 Climbing Fort Worth Center
07:17PM 31.6369 -94.5928 12° North 432 497 41,000 1,080 Climbing Fort Worth Center
07:18PM 31.7511 -94.5600 14° North 427 491 39,900 -60 Descending Fort Worth Center
07:19PM 31.8631 -94.5294 13° North 422 486 40,900 540 Climbing Fort Worth Center
07:20PM 31.9772 -94.4989 13° North 417 480 41,000  Climbing Fort Worth Center
07:21PM 32.0975 -94.4681 12° North 422 486 41,000  Level Fort Worth Center
07:22PM 32.2219 -94.4272 16° North 427 491 41,000  Level Fort Worth Center
07:23PM 32.3422 -94.3964 12° North 427 491 41,000  Level Fort Worth Center
07:24PM 32.4583 -94.3628 14° North 427 491 41,000  Level Fort Worth Center
07:25PM 32.5744 -94.3367 11° North 427 491 41,000  Level Fort Worth Center
07:26PM 32.6842 -94.3011 15° North 421 484 41,000  Level Fort Worth Center
07:27PM 32.7964 -94.2722 12° North 416 479 41,000  Level Fort Worth Center
07:28PM 32.9061 -94.2439 12° North 410 472 41,000  Level Fort Worth Center
07:29PM 33.0161 -94.2125 13° North 410 472 41,000  Level Fort Worth Center
07:30PM 33.1239 -94.1839 13° North 410 472 41,000  Level Fort Worth Center
07:31PM 33.2336 -94.1553 12° North 405 466 41,000  Level Fort Worth Center
07:32PM 33.3456 -94.1261 12° North 405 466 41,000  Level Fort Worth Center
07:33PM 33.4369 -94.1028 12° North 410 472 41,000  Level Fort Worth Center
07:34PM 33.5592 -94.0733 11° North 410 472 41,000  Level Fort Worth Center
07:35PM 33.6394 -94.0772 358° North 401 461 41,000  Level Memphis Center
07:36PM 33.7500 -94.0822 358° North 419 482 41,000  Level Memphis Center
07:37PM 33.8606 -94.0819 360° North 407 468 41,000  Level Memphis Center
07:38PM 33.9692 -94.0789 North 397 457 41,000  Level Memphis Center
07:39PM 34.0753 -94.0208 24° Northeast 392 451 41,000  Level Memphis Center
07:40PM 34.1753 -93.9522 30° Northeast 405 466 41,000  Level Memphis Center
07:41PM 34.2775 -93.8836 29° Northeast 411 473 41,000  Level Memphis Center
07:42PM 34.3753 -93.8122 31° Northeast 411 473 41,000  Level Memphis Center
07:43PM 34.4753 -93.7406 31° Northeast 411 473 41,000  Level Memphis Center
07:44PM 34.5775 -93.6717 29° Northeast 411 473 41,000  Level Memphis Center
07:45PM 34.6794 -93.5997 30° Northeast 411 473 41,000  Level Memphis Center
07:46PM 34.7814 -93.5278 30° Northeast 411 473 41,000  Level Memphis Center
07:47PM 34.8856 -93.4558 30° Northeast 411 473 41,000  Level Memphis Center
07:48PM 34.9853 -93.3858 30° Northeast 411 473 41,000  Level Memphis Center
07:49PM 35.0892 -93.3136 30° Northeast 416 479 41,000  Level Memphis Center
07:50PM 35.1822 -93.2583 26° Northeast 416 479 41,000  Level Memphis Center
07:51PM 35.2861 -93.1831 31° Northeast 421 484 41,000  Level Memphis Center
07:52PM 35.3861 -93.1075 32° Northeast 426 490 41,000  Level Memphis Center
07:53PM 35.4917 -93.0394 28° Northeast 426 490 41,000  Level Memphis Center
07:54PM 35.5914 -92.9664 31° Northeast 421 484 41,000  Level Memphis Center
07:55PM 35.6911 -92.8850 34° Northeast 421 484 41,000  Level Memphis Center
07:56PM 35.7906 -92.8139 30° Northeast 421 484 41,000  Level Memphis Center
07:57PM 35.8897 -92.7425 30° Northeast 409 471 41,000  Level Memphis Center
07:58PM 35.9892 -92.6708 30° Northeast 409 471 41,000  Level Memphis Center
07:59PM 36.0906 -92.5942 31° Northeast 414 476 41,000  Level Memphis Center
08:00PM 36.1919 -92.5222 30° Northeast 414 476 41,000 -300 Level Memphis Center
08:01PM 36.2933 -92.4503 30° Northeast 414 476 40,400 -1,020 Descending Memphis Center
08:02PM 36.3944 -92.3783 30° Northeast 414 476 39,000 -1,740 Descending Memphis Center
08:04PM 36.6144 -92.2086 32° Northeast 388 447 34,700 -1,860 Descending Kansas City Center
08:05PM 36.6969 -92.1542 28° Northeast 357 411 32,800 -1,980 Descending Kansas City Center
08:06PM 36.7850 -92.0914 30° Northeast 355 409 30,700 -2,040 Descending Kansas City Center
08:07PM 36.8814 -92.0136 33° Northeast 393 452 28,700 -1,800 Descending Kansas City Center
08:08PM 36.9739 -91.9425 32° Northeast 393 452 27,000 -900 Descending Kansas City Center
08:09PM 37.0669 -91.8761 30° Northeast 388 447 26,900 -960 Descending Kansas City Center
08:10PM 37.1811 -91.7889 31° Northeast 397 457 25,100 -1,440 Descending Kansas City Center
08:11PM 37.2744 -91.7200 30° Northeast 392 451 24,000 -540 Descending Kansas City Center
08:12PM 37.3697 -91.6472 31° Northeast 397 457 24,000  Level Kansas City Center
08:13PM 37.4672 -91.5753 30° Northeast 403 464 24,000  Level Kansas City Center
08:14PM 37.5625 -91.5017 31° Northeast 403 464 24,000  Level Kansas City Center
08:15PM 37.6597 -91.4294 30° Northeast 404 465 24,000 -60 Level Kansas City Center
08:16PM 37.7750 -91.3403 31° Northeast 405 466 23,900 -1,080 Descending Kansas City Center
08:17PM 37.8714 -91.2667 31° Northeast 405 466 21,800 -2,040 Descending Kansas City Center
08:18PM 37.9672 -91.1944 31° Northeast 401 461 19,700 -2,040 Descending Kansas City Center
08:19PM 38.0589 -91.1239 31° Northeast 391 450 17,700 -2,040 Descending Kansas City Center
08:20PM 38.1539 -91.0500 31° Northeast 378 435 15,500 -2,040 Descending Kansas City Center
08:22PM 38.2403 -90.9808 32° Northeast 368 423 13,500 -1,800 Descending Kansas City Center
08:23PM 38.3242 -90.9158 31° Northeast 356 410 11,900 -1,680 Descending Kansas City Center
08:24PM 38.3989 -90.8581 31° Northeast 321 369 10,100 -1,800 Descending Kansas City Center
08:25PM 38.4631 -90.8092 31° Northeast 278 320 8,200 -2,040 Descending Kansas City Center
08:26PM 38.5397 -90.7489 32° Northeast 270 311 5,900 -2,040 Descending Kansas City Center
08:27PM 38.5764 -90.6711 59° Northeast 273 314 4,000 -1,320 Descending Kansas City Center
08:28PM 38.5931 -90.5803 77° East 271 312 3,200 -540 Descending Kansas City Center
08:29PM 38.6078 -90.5075 75° East 239 275 3,000 -180 Descending Kansas City Center
08:30PM 38.6422 -90.4536 51° Northeast 231 266 2,900 -420 Descending Kansas City Center
08:31PM 38.6861 -90.4844 331° Northwest 222 255 2,200 -600 Descending Kansas City Center
08:32PM 38.6739 -90.5628 259° West 196 226 1,700 -660 Descending Kansas City Center
08:33PM 38.6658 -90.6100 258° West 163 188 900 -600 Descending Kansas City Center
08:34PM 38.6592 -90.6531 259° West 136 157 500 -420 Descending Kansas City Center